createdAt,value
2023-03-08T00:00:13.484Z,2.29
2023-03-08T00:03:15.474Z,2.08
2023-03-08T00:06:05.745Z,2.05
2023-03-08T00:09:00.616Z,2.09
2023-03-08T00:11:46.981Z,2.14
2023-03-08T00:14:33.566Z,2.15
2023-03-08T00:17:20.432Z,2.21
2023-03-08T00:20:11.106Z,2.14
2023-03-08T00:22:57.844Z,2.15
2023-03-08T00:25:45.224Z,2.09
2023-03-08T00:28:32.390Z,2.07
2023-03-08T00:31:19.787Z,2.05
2023-03-08T00:34:06.683Z,2.00
2023-03-08T00:36:54.133Z,1.97
2023-03-08T00:39:40.601Z,1.94
2023-03-08T00:42:27.552Z,1.96
2023-03-08T00:45:13.959Z,1.96
2023-03-08T00:48:00.593Z,1.99
2023-03-08T00:50:48.039Z,2.05
2023-03-08T00:53:35.430Z,1.94
2023-03-08T00:56:22.160Z,1.93
2023-03-08T00:59:08.746Z,1.94
2023-03-08T01:01:55.439Z,1.89
2023-03-08T01:04:42.091Z,1.80
2023-03-08T01:08:10.686Z,1.83
2023-03-08T01:10:59.794Z,1.76
2023-03-08T01:13:46.343Z,1.73
2023-03-08T01:16:34.068Z,1.68
2023-03-08T01:19:21.477Z,1.67
2023-03-08T01:22:08.172Z,1.59
2023-03-08T01:24:54.510Z,1.49
2023-03-08T01:27:41.114Z,1.49
2023-03-08T01:30:28.519Z,1.50
2023-03-08T01:33:15.643Z,1.55
2023-03-08T01:36:10.471Z,1.60
2023-03-08T01:39:01.663Z,1.50
2023-03-08T01:41:48.404Z,1.37
2023-03-08T01:45:00.346Z,1.44
2023-03-08T01:47:47.012Z,1.53
2023-03-08T01:50:33.787Z,1.48
2023-03-08T01:53:23.349Z,1.39
2023-03-08T01:56:13.710Z,1.33
2023-03-08T01:59:01.401Z,1.29
2023-03-08T02:01:48.855Z,1.34
2023-03-08T02:04:35.981Z,1.40
2023-03-08T02:07:22.621Z,1.39
2023-03-08T02:14:20.363Z,1.22
2023-03-08T02:17:07.281Z,1.23
2023-03-08T02:20:12.582Z,1.30
2023-03-08T02:23:11.648Z,1.38
2023-03-08T02:26:10.501Z,1.35
2023-03-08T02:28:57.282Z,1.33
2023-03-08T02:31:43.554Z,1.37
2023-03-08T02:34:31.052Z,1.33
2023-03-08T02:37:17.829Z,1.33
2023-03-08T02:40:05.210Z,1.32
2023-03-08T02:42:53.459Z,1.42
2023-03-08T02:45:40.547Z,1.47
2023-03-08T02:48:26.864Z,1.47
2023-03-08T02:51:14.215Z,1.47
2023-03-08T02:54:00.915Z,1.52
2023-03-08T02:56:47.595Z,1.57
2023-03-08T02:59:33.873Z,1.45
2023-03-08T03:02:20.701Z,1.47
2023-03-08T03:05:11.085Z,1.54
2023-03-08T03:07:58.712Z,1.58
2023-03-08T03:10:45.634Z,1.46
2023-03-08T03:13:32.317Z,1.50
2023-03-08T03:16:19.259Z,1.60
2023-03-08T03:19:05.749Z,1.65
2023-03-08T03:21:52.445Z,1.75
2023-03-08T03:24:38.915Z,1.68
2023-03-08T03:27:25.562Z,1.72
2023-03-08T03:30:12.864Z,1.71
2023-03-08T03:32:59.471Z,1.71
2023-03-08T03:35:46.017Z,1.71
2023-03-08T03:38:32.380Z,1.78
2023-03-08T03:41:21.759Z,1.74
2023-03-08T03:44:08.400Z,1.80
2023-03-08T03:46:56.525Z,1.80
2023-03-08T03:49:43.011Z,1.82
2023-03-08T03:52:29.702Z,1.85
2023-03-08T03:55:16.676Z,1.88
2023-03-08T03:58:03.483Z,1.88
2023-03-08T04:00:50.010Z,1.89
2023-03-08T04:03:37.530Z,1.88
2023-03-08T04:06:35.184Z,1.79
2023-03-08T04:09:21.647Z,1.78
2023-03-08T04:12:08.496Z,1.79
2023-03-08T04:14:57.921Z,1.77
2023-03-08T04:17:45.241Z,1.77
2023-03-08T04:20:32.148Z,1.80
2023-03-08T04:23:20.043Z,1.76
2023-03-08T04:26:07.426Z,1.81
2023-03-08T04:28:53.898Z,1.78
2023-03-08T04:31:40.257Z,1.79
2023-03-08T04:34:27.860Z,1.77
2023-03-08T04:37:14.624Z,1.79
2023-03-08T04:40:02.678Z,1.76
2023-03-08T04:42:49.477Z,1.70
2023-03-08T04:45:36.839Z,1.68
2023-03-08T04:48:26.335Z,1.68
2023-03-08T04:51:15.147Z,1.65
2023-03-08T04:54:01.898Z,1.68
2023-03-08T04:56:49.419Z,1.75
2023-03-08T04:59:36.161Z,1.77
2023-03-08T05:02:24.217Z,1.86
2023-03-08T05:05:10.728Z,1.86
2023-03-08T05:07:57.379Z,1.88
2023-03-08T05:11:00.286Z,1.92
2023-03-08T05:13:49.288Z,1.90
2023-03-08T05:16:35.721Z,1.92
2023-03-08T05:19:23.420Z,1.92
2023-03-08T05:22:09.868Z,1.95
2023-03-08T05:24:56.641Z,1.94
2023-03-08T05:27:43.280Z,1.93
2023-03-08T05:30:29.852Z,1.97
2023-03-08T05:33:17.732Z,2.00
2023-03-08T05:36:05.941Z,1.94
2023-03-08T05:38:55.957Z,1.97
2023-03-08T05:41:45.044Z,1.96
2023-03-08T05:44:31.378Z,1.94
2023-03-08T05:47:17.967Z,1.91
2023-03-08T05:50:04.856Z,1.97
2023-03-08T05:52:51.589Z,1.94
2023-03-08T05:55:38.299Z,1.92
2023-03-08T05:58:25.041Z,1.91
2023-03-08T06:01:16.829Z,1.94
2023-03-08T06:04:03.444Z,1.94
2023-03-08T06:06:49.900Z,1.98
2023-03-08T06:09:36.345Z,1.87
2023-03-08T06:12:23.830Z,1.83
2023-03-08T06:15:12.362Z,1.84
2023-03-08T06:17:59.298Z,1.84
2023-03-08T06:20:45.862Z,1.83
2023-03-08T06:23:34.625Z,1.85
2023-03-08T06:26:21.366Z,1.83
2023-03-08T06:29:08.150Z,1.87
2023-03-08T06:31:56.115Z,2.07
2023-03-08T06:34:43.272Z,2.25
2023-03-08T06:37:35.055Z,2.25
2023-03-08T06:40:38.716Z,2.30
2023-03-08T06:43:27.169Z,2.14
2023-03-08T06:46:17.352Z,2.20
2023-03-08T06:49:04.361Z,2.43
2023-03-08T06:52:35.302Z,2.59
2023-03-08T06:55:24.362Z,2.54
2023-03-08T06:58:28.750Z,2.77
2023-03-08T07:01:18.539Z,3.48
2023-03-08T07:04:05.498Z,3.73
2023-03-08T07:06:52.151Z,4.01
2023-03-08T07:09:38.816Z,3.83
2023-03-08T07:12:25.595Z,3.74
2023-03-08T07:15:19.004Z,3.82
2023-03-08T07:18:14.090Z,4.04
2023-03-08T07:21:02.681Z,4.06
2023-03-08T07:23:51.980Z,4.18
2023-03-08T07:26:38.392Z,4.39
2023-03-08T07:29:25.652Z,4.42
2023-03-08T07:32:15.336Z,5.03
2023-03-08T07:35:05.443Z,4.87
2023-03-08T07:37:51.928Z,5.05
2023-03-08T07:40:39.346Z,5.08
2023-03-08T07:43:27.370Z,5.43
2023-03-08T07:46:15.479Z,5.02
2023-03-08T07:49:02.388Z,4.78
2023-03-08T07:51:49.926Z,4.87
2023-03-08T07:54:37.012Z,4.57
2023-03-08T07:57:24.484Z,4.38
2023-03-08T08:00:11.404Z,4.51
2023-03-08T08:02:58.254Z,4.26
2023-03-08T08:05:45.464Z,4.25
2023-03-08T08:08:32.584Z,4.03
2023-03-08T08:11:22.631Z,4.09
2023-03-08T08:14:10.096Z,3.90
2023-03-08T08:16:57.415Z,4.11
2023-03-08T08:19:44.033Z,4.14
2023-03-08T08:22:30.617Z,3.37
2023-03-08T08:25:17.226Z,3.48
2023-03-08T08:28:03.914Z,3.62
2023-03-08T08:31:00.155Z,3.87
2023-03-08T08:33:46.919Z,4.76
2023-03-08T08:36:33.529Z,4.62
2023-03-08T08:39:23.988Z,4.00
2023-03-08T08:42:10.632Z,3.87
2023-03-08T08:44:57.263Z,3.70
2023-03-08T08:47:45.609Z,3.86
2023-03-08T08:50:32.683Z,4.20
2023-03-08T08:53:20.360Z,4.27
2023-03-08T08:56:25.578Z,4.67
2023-03-08T08:59:13.440Z,4.84
2023-03-08T09:01:59.837Z,4.60
2023-03-08T09:04:46.240Z,5.00
2023-03-08T09:07:32.891Z,5.07
2023-03-08T09:10:19.660Z,5.44
2023-03-08T09:13:06.755Z,6.20
2023-03-08T09:15:53.592Z,5.77
2023-03-08T09:18:40.288Z,6.76
2023-03-08T09:21:28.420Z,7.82
2023-03-08T09:24:14.968Z,7.53
2023-03-08T09:27:01.637Z,7.83
2023-03-08T09:29:48.051Z,7.90
2023-03-08T09:35:22.146Z,8.02
2023-03-08T09:38:07.192Z,8.10
2023-03-08T09:41:26.846Z,8.67
2023-03-08T09:44:43.061Z,9.36
2023-03-08T09:47:32.370Z,9.38
2023-03-08T09:50:33.875Z,9.20
2023-03-08T09:53:34.543Z,9.76
2023-03-08T09:56:43.914Z,10.37
2023-03-08T09:59:52.148Z,10.14
2023-03-08T10:02:47.558Z,9.67
2023-03-08T10:06:14.388Z,9.57
2023-03-08T10:09:11.506Z,10.14
2023-03-08T10:12:35.462Z,10.58
2023-03-08T10:15:23.307Z,10.62
2023-03-08T10:18:28.671Z,10.48
2023-03-08T10:21:18.965Z,9.63
2023-03-08T10:24:15.391Z,9.20
2023-03-08T10:27:10.235Z,9.21
2023-03-08T10:29:57.759Z,10.36
2023-03-08T10:32:46.305Z,10.60
2023-03-08T10:35:37.941Z,11.08
2023-03-08T10:38:25.833Z,11.58
2023-03-08T10:41:17.336Z,12.02
2023-03-08T10:44:03.343Z,11.15
2023-03-08T10:46:50.092Z,12.15
2023-03-08T10:49:35.477Z,14.13
2023-03-08T10:52:26.418Z,14.18
2023-03-08T10:55:14.743Z,12.56
2023-03-08T10:58:01.552Z,12.02
2023-03-08T11:00:53.693Z,11.05
2023-03-08T11:03:39.777Z,9.38
2023-03-08T11:06:25.791Z,9.42
2023-03-08T11:09:27.336Z,9.31
2023-03-08T11:12:23.405Z,8.30
2023-03-08T11:15:19.127Z,8.72
2023-03-08T11:18:41.278Z,8.42
2023-03-08T11:21:38.562Z,8.32
2023-03-08T11:25:03.990Z,8.01
2023-03-08T11:28:26.817Z,8.07
2023-03-08T11:31:18.199Z,8.38
2023-03-08T11:34:45.345Z,10.04
2023-03-08T11:37:40.115Z,10.40
2023-03-08T11:40:37.752Z,11.31
2023-03-08T11:43:31.520Z,12.07
2023-03-08T11:46:24.384Z,12.67
2023-03-08T11:49:28.330Z,13.56
2023-03-08T11:52:36.248Z,14.00
2023-03-08T11:55:49.362Z,14.08
2023-03-08T11:58:49.165Z,13.53
2023-03-08T12:02:02.516Z,14.52
2023-03-08T12:05:05.521Z,14.41
2023-03-08T12:08:13.151Z,14.85
2023-03-08T12:11:19.769Z,16.19
2023-03-08T12:14:12.788Z,15.90
2023-03-08T12:17:19.857Z,15.57
2023-03-08T12:20:08.545Z,14.64
2023-03-08T12:23:05.912Z,13.27
2023-03-08T12:26:09.834Z,12.56
2023-03-08T12:29:08.779Z,14.35
2023-03-08T12:33:40.425Z,12.78
2023-03-08T12:36:41.230Z,12.20
2023-03-08T12:39:35.721Z,11.43
2023-03-08T12:42:50.278Z,10.68
2023-03-08T12:45:36.695Z,9.66
2023-03-08T12:48:41.960Z,8.72
2023-03-08T12:51:33.295Z,8.33
2023-03-08T12:54:22.853Z,8.91
2023-03-08T12:57:21.079Z,9.94
2023-03-08T13:00:30.361Z,10.40
2023-03-08T13:03:15.620Z,9.84
2023-03-08T13:06:33.676Z,8.52
2023-03-08T13:09:28.175Z,7.94
2023-03-08T13:12:23.461Z,7.65
2023-03-08T13:15:12.893Z,8.72
2023-03-08T13:18:08.795Z,8.96
2023-03-08T13:21:18.776Z,8.78
2023-03-08T13:24:18.223Z,10.07
2023-03-08T13:27:20.966Z,11.55
2023-03-08T13:30:57.742Z,11.82
2023-03-08T13:33:48.726Z,11.49
2023-03-08T13:46:26.917Z,11.75
2023-03-08T13:49:25.846Z,11.65
2023-03-08T13:52:30.974Z,10.65
2023-03-08T13:55:25.656Z,11.89
2023-03-08T13:58:33.924Z,12.62
2023-03-08T14:01:23.171Z,11.84
2023-03-08T14:04:19.258Z,11.44
2023-03-08T14:07:06.521Z,11.26
2023-03-08T14:09:53.858Z,11.61
2023-03-08T14:12:40.531Z,11.55
2023-03-08T14:15:27.558Z,12.08
2023-03-08T14:18:22.420Z,11.95
2023-03-08T14:21:24.266Z,11.32
2023-03-08T14:24:20.365Z,11.32
2023-03-08T14:27:36.144Z,11.03
2023-03-08T14:30:25.706Z,10.38
2023-03-08T14:33:15.859Z,9.45
2023-03-08T14:36:05.986Z,8.54
2023-03-08T14:38:56.565Z,8.25
2023-03-08T14:41:43.356Z,8.08
2023-03-08T14:44:31.239Z,7.88
2023-03-08T14:47:27.216Z,7.58
2023-03-08T14:50:25.484Z,7.45
2023-03-08T14:53:34.882Z,7.15
2023-03-08T14:56:21.935Z,7.12
2023-03-08T14:59:14.000Z,7.07
2023-03-08T15:02:13.358Z,7.18
2023-03-08T15:05:02.925Z,6.91
2023-03-08T15:07:54.013Z,6.75
2023-03-08T15:10:43.715Z,6.76
2023-03-08T15:13:31.981Z,6.88
2023-03-08T15:16:21.302Z,6.50
2023-03-08T15:19:08.943Z,6.42
2023-03-08T15:21:55.738Z,6.50
2023-03-08T15:24:42.543Z,6.52
2023-03-08T15:27:30.829Z,6.59
2023-03-08T15:30:23.290Z,6.47
2023-03-08T15:33:10.013Z,6.22
2023-03-08T15:35:58.649Z,6.08
2023-03-08T15:38:45.469Z,5.95
2023-03-08T15:41:31.985Z,6.07
2023-03-08T15:44:18.863Z,6.15
2023-03-08T15:47:05.513Z,5.99
2023-03-08T15:49:52.628Z,5.96
2023-03-08T15:52:39.199Z,5.73
2023-03-08T15:55:28.449Z,5.68
2023-03-08T15:58:15.248Z,5.75
2023-03-08T16:01:02.096Z,5.58
2023-03-08T16:03:54.712Z,5.67
2023-03-08T16:06:51.873Z,5.64
2023-03-08T16:09:40.292Z,5.57
2023-03-08T16:12:27.257Z,5.69
2023-03-08T16:15:15.628Z,5.61
2023-03-08T16:18:02.158Z,5.40
2023-03-08T16:20:48.724Z,5.43
2023-03-08T16:23:36.419Z,5.28
2023-03-08T16:26:22.803Z,5.28
2023-03-08T16:29:09.727Z,5.34
2023-03-08T16:31:58.524Z,5.19
2023-03-08T16:34:51.095Z,5.24
2023-03-08T16:41:51.710Z,5.13
2023-03-08T16:44:39.065Z,5.14
2023-03-08T16:47:28.972Z,5.19
2023-03-08T16:50:30.362Z,5.10
2023-03-08T16:53:16.956Z,5.06
2023-03-08T16:56:04.644Z,4.82
2023-03-08T16:59:14.331Z,4.94
2023-03-08T17:02:01.778Z,4.96
2023-03-08T17:04:49.861Z,4.82
2023-03-08T17:07:36.789Z,4.68
2023-03-08T17:10:24.168Z,4.62
2023-03-08T17:13:12.926Z,4.61
2023-03-08T17:16:00.207Z,4.67
2023-03-08T17:18:48.739Z,4.65
2023-03-08T17:21:39.545Z,4.64
2023-03-08T17:24:28.386Z,4.72
2023-03-08T17:27:15.973Z,4.78
2023-03-08T17:30:04.140Z,4.79
2023-03-08T17:32:50.923Z,4.83
2023-03-08T17:35:42.254Z,4.78
2023-03-08T17:38:29.744Z,4.67
2023-03-08T17:41:17.086Z,4.60
2023-03-08T17:44:03.719Z,4.64
2023-03-08T17:46:50.771Z,4.44
2023-03-08T17:49:39.791Z,4.34
2023-03-08T17:52:26.472Z,4.11
2023-03-08T17:55:12.893Z,4.09
2023-03-08T17:57:59.291Z,3.95
2023-03-08T18:00:46.127Z,3.82
2023-03-08T18:03:33.989Z,3.84
2023-03-08T18:06:33.443Z,3.75
2023-03-08T18:09:19.981Z,3.51
2023-03-08T18:12:11.591Z,3.52
2023-03-08T18:14:58.557Z,3.55
2023-03-08T18:17:44.965Z,3.56
2023-03-08T18:20:31.725Z,3.43
2023-03-08T18:23:19.312Z,3.36
2023-03-08T18:26:05.722Z,3.39
2023-03-08T18:28:52.630Z,3.39
2023-03-08T18:31:40.277Z,3.36
2023-03-08T18:34:27.365Z,3.35
2023-03-08T18:37:14.846Z,3.41
2023-03-08T18:40:01.084Z,3.42
2023-03-08T18:42:47.764Z,3.36
2023-03-08T18:45:36.262Z,3.24
2023-03-08T18:48:24.378Z,3.04
2023-03-08T18:51:11.687Z,3.05
2023-03-08T18:54:00.139Z,2.88
2023-03-08T19:03:17.720Z,2.45
2023-03-08T19:06:05.235Z,2.35
2023-03-08T19:08:51.934Z,2.23
2023-03-08T19:11:39.406Z,2.17
2023-03-08T19:14:27.670Z,2.04
2023-03-08T19:17:16.345Z,2.08
2023-03-08T19:20:05.269Z,1.99
2023-03-08T19:22:52.750Z,2.06
2023-03-08T19:25:57.749Z,1.97
2023-03-08T19:28:44.131Z,1.97
2023-03-08T19:34:58.726Z,1.78
2023-03-08T19:37:45.131Z,1.77
2023-03-08T19:40:34.241Z,1.72
2023-03-08T19:43:21.104Z,1.80
2023-03-08T19:46:09.702Z,1.82
2023-03-08T19:48:56.697Z,1.83
2023-03-08T19:51:47.242Z,1.91
2023-03-08T19:54:39.267Z,1.92
2023-03-08T19:57:25.930Z,2.10
2023-03-08T20:00:13.816Z,2.08
2023-03-08T20:03:02.212Z,2.02
2023-03-08T20:05:49.169Z,1.94
2023-03-08T20:08:37.155Z,1.95
2023-03-08T20:11:24.255Z,1.92
2023-03-08T20:14:12.731Z,1.96
2023-03-08T20:17:01.875Z,2.01
2023-03-08T20:19:48.329Z,1.99
2023-03-08T20:22:35.092Z,2.01
2023-03-08T20:25:21.457Z,2.04
2023-03-08T20:28:09.187Z,2.09
2023-03-08T20:30:56.150Z,2.22
2023-03-08T20:33:43.190Z,2.27
2023-03-08T20:36:29.790Z,2.29
2023-03-08T20:39:18.319Z,2.24
2023-03-08T20:42:05.285Z,2.23
2023-03-08T20:44:52.244Z,2.29
2023-03-08T20:47:44.288Z,2.26
2023-03-08T20:50:30.767Z,2.22
2023-03-08T20:53:22.216Z,2.11
2023-03-08T20:56:12.963Z,2.14
2023-03-08T20:59:01.027Z,2.20
2023-03-08T21:01:49.312Z,2.36
2023-03-08T21:04:36.289Z,2.44
2023-03-08T21:07:23.598Z,2.44
2023-03-08T21:10:10.663Z,2.60
2023-03-08T21:12:57.147Z,2.71
2023-03-08T21:15:44.053Z,2.79
2023-03-08T21:18:30.414Z,2.79
2023-03-08T21:21:29.100Z,2.83
2023-03-08T21:24:17.423Z,2.76
2023-03-08T21:27:03.773Z,2.73
2023-03-08T21:29:50.545Z,2.64
2023-03-08T21:32:38.456Z,2.64
2023-03-08T21:35:25.242Z,2.68
2023-03-08T21:38:11.846Z,2.63
2023-03-08T21:40:58.257Z,2.56
2023-03-08T21:43:44.713Z,2.37
2023-03-08T21:46:31.124Z,2.33
2023-03-08T21:49:21.690Z,2.35
2023-03-08T21:52:09.871Z,2.36
2023-03-08T21:54:56.585Z,2.38
2023-03-08T21:57:42.839Z,2.39
2023-03-08T22:00:29.601Z,2.38
2023-03-08T22:03:16.575Z,2.41
2023-03-08T22:06:04.755Z,2.39
2023-03-08T22:08:53.753Z,2.41
2023-03-08T22:11:40.709Z,2.39
2023-03-08T22:14:28.076Z,2.38
2023-03-08T22:17:16.842Z,2.39
2023-03-08T22:20:05.483Z,2.39
2023-03-08T22:22:52.174Z,2.38
2023-03-08T22:25:38.862Z,2.37
2023-03-08T22:28:25.705Z,2.34
2023-03-08T22:31:15.826Z,2.31
2023-03-08T22:34:04.707Z,2.23
2023-03-08T22:36:51.391Z,2.24
2023-03-08T22:39:39.141Z,2.28
2023-03-08T22:42:26.017Z,2.31
2023-03-08T22:45:13.207Z,2.38
2023-03-08T22:48:00.651Z,2.41
2023-03-08T22:50:47.175Z,2.44
2023-03-08T22:53:33.553Z,2.47
2023-03-08T22:56:23.835Z,2.47
2023-03-08T22:59:12.402Z,2.43
2023-03-08T23:01:59.207Z,2.40
2023-03-08T23:04:45.906Z,2.36
2023-03-08T23:07:33.005Z,2.35
2023-03-08T23:10:19.997Z,2.39
2023-03-08T23:13:07.241Z,2.41
2023-03-08T23:15:53.747Z,2.45
2023-03-08T23:18:40.564Z,2.41
2023-03-08T23:21:32.452Z,2.38
2023-03-08T23:24:19.960Z,2.36
2023-03-08T23:27:06.450Z,2.40
2023-03-08T23:29:53.754Z,2.43
2023-03-08T23:32:42.660Z,2.39
2023-03-08T23:35:29.023Z,2.35
2023-03-08T23:38:15.535Z,2.36
2023-03-08T23:41:06.837Z,2.36
2023-03-08T23:43:55.733Z,2.27
2023-03-08T23:46:46.105Z,2.28
2023-03-08T23:49:32.843Z,2.23
2023-03-08T23:52:21.141Z,2.17
2023-03-08T23:55:08.191Z,2.13
2023-03-08T23:57:54.698Z,2.12
